Česky Dansk Deutsch English Español Suomi Français Magyar Italiano Nederlands norsk Polski Português svenska Türkçe

 

Het Weer

Kimberley, Kim-Apt (Zuid Afrika)

14:00, 21 augustus 2016 (GMT)

NWNNE
WE
SWSSE
Home            
Kimberley, Kim-Apt Bloemfontein, Bloemfontein Airport Welkom Vryburg Sishen De Aar De Aar Maseru / Moshoeshoe Maseru-Mia Aliwal North Klerksdorp Middelburg Lichtenburg Potchefstroom Mafikeng Intl. Ad Upington, Up-Apt Bethlehem Airport Tsabong Graaff Reinet Queenstown Vereeniging Frankfort Rand

Om een weerknop op uw website of weblog te plaatsen, copieer onderstaande code en plak die in uw pagina. In het eerste vakje staat HTML-code, in het tweede vakje UBB-code.


Add to Google

Details

Wind speed:3 bf, 8 kn, 4.1 m/s, 9.2 miles/h, 14.8 km/h
Wind direction:W, 260°
Visibility:Greater than 10000 m, 10 km, 32800 ft, 6.2 miles
Clouds:CAVOC
Temperature:22°C, 72°F
Gefühlte Temperatur:24°C, 75°F
Dew-point:-2°C, 28°F
Atmospheric pressure:1017 hPa, 762.8 mmHg, 30.03 inHg, 1.004 atm
Relative humidity:19.9 %
METAR:FAKM 211400Z 26008KT CAVOK 22/M02 Q1017

Snelkoppelingen

Actuele weersinformatie van de hele wereld. Voeg locaties toe met het plus (+) symbool. Deze snelkoppelingen kunnen worden toegevoegd aan Google.

Lid van de Technetium groep

website free tracking
StatCounter NetStat W3C Validator

17-12-2017 04:50:42
astro.technetium.be money.technetium.be phote.technetium.be tafeltennistafel.technetium.be www.ligfiets.net